Time,TemperatureF,DewpointF,PressureIn,WindDirection,WindDirectionDegrees,WindSpeedMPH,WindSpeedGustMPH,Humidity,HourlyPrecipIn,Conditions,Clouds,dailyrainin,SolarRadiationWatts/m^2,SoftwareType,DateUTC
2013-07-08 00:01:00,64.0,40.0,-100.00,ESE,118,4.0,7.0,42,0.00,,,0.00,0.000000,,2013-07-08 06:01:00,
2013-07-08 00:11:00,64.0,40.0,-100.00,ESE,118,4.0,7.0,42,0.00,,,0.00,0.000000,,2013-07-08 06:11:00,
2013-07-08 00:43:00,60.0,38.0,-100.00,East,82,3.0,7.0,44,0.00,,,0.00,0.000000,,2013-07-08 06:43:00,
2013-07-08 00:53:00,60.0,38.0,-100.00,East,82,3.0,7.0,44,0.00,,,0.00,0.000000,,2013-07-08 06:53:00,
2013-07-08 01:02:00,60.0,38.0,-100.00,East,82,3.0,7.0,44,0.00,,,0.00,0.000000,,2013-07-08 07:02:00,
2013-07-08 01:11:00,60.0,38.0,-100.00,East,82,3.0,7.0,44,0.00,,,0.00,0.000000,,2013-07-08 07:11:00,
2013-07-08 01:44:00,57.0,39.0,-100.00,West,278,2.0,7.0,50,0.00,,,0.00,0.000000,,2013-07-08 07:44:00,
2013-07-08 01:53:00,57.0,39.0,-100.00,West,278,2.0,7.0,50,0.00,,,0.00,0.000000,,2013-07-08 07:53:00,
2013-07-08 02:02:00,57.0,39.0,-100.00,West,278,2.0,7.0,50,0.00,,,0.00,0.000000,,2013-07-08 08:02:00,
2013-07-08 02:11:00,57.0,39.0,-100.00,West,278,2.0,7.0,50,0.00,,,0.00,0.000000,,2013-07-08 08:11:00,
2013-07-08 02:42:00,56.0,43.0,-100.00,SE,145,4.0,6.0,62,0.00,,,0.00,0.000000,,2013-07-08 08:42:00,
2013-07-08 02:53:00,56.0,43.0,-100.00,SE,145,4.0,6.0,62,0.00,,,0.00,0.000000,,2013-07-08 08:53:00,
2013-07-08 03:01:00,56.0,43.0,-100.00,SE,145,4.0,6.0,62,0.00,,,0.00,0.000000,,2013-07-08 09:01:00,
2013-07-08 03:11:00,56.0,43.0,-100.00,SE,145,4.0,6.0,62,0.00,,,0.00,0.000000,,2013-07-08 09:11:00,
2013-07-08 03:43:00,55.0,38.0,-100.00,ESE,109,5.0,10.0,52,0.00,,,0.00,0.000000,,2013-07-08 09:43:00,
2013-07-08 03:53:00,55.0,38.0,-100.00,ESE,109,5.0,10.0,52,0.00,,,0.00,0.000000,,2013-07-08 09:53:00,
2013-07-08 04:01:00,55.0,38.0,-100.00,ESE,109,5.0,10.0,52,0.00,,,0.00,0.000000,,2013-07-08 10:01:00,
2013-07-08 04:11:00,55.0,38.0,-100.00,ESE,109,5.0,10.0,52,0.00,,,0.00,0.000000,,2013-07-08 10:11:00,
2013-07-08 04:43:00,53.0,41.0,-100.00,South,191,3.0,11.0,64,0.00,,,0.00,0.000000,,2013-07-08 10:43:00,
2013-07-08 04:53:00,53.0,41.0,-100.00,South,191,3.0,11.0,64,0.00,,,0.00,0.000000,,2013-07-08 10:53:00,
2013-07-08 05:02:00,53.0,41.0,-100.00,South,191,3.0,11.0,64,0.00,,,0.00,0.000000,,2013-07-08 11:02:00,
2013-07-08 05:11:00,53.0,41.0,-100.00,South,191,3.0,11.0,64,0.00,,,0.00,0.000000,,2013-07-08 11:11:00,
2013-07-08 05:43:00,51.0,41.0,-100.00,NNE,29,2.0,7.0,68,0.00,,,0.00,0.000000,,2013-07-08 11:43:00,
2013-07-08 05:53:00,51.0,41.0,-100.00,NNE,29,2.0,7.0,68,0.00,,,0.00,0.000000,,2013-07-08 11:53:00,
2013-07-08 06:01:00,51.0,41.0,-100.00,NNE,29,2.0,7.0,68,0.00,,,0.00,0.000000,,2013-07-08 12:01:00,
2013-07-08 06:11:00,51.0,41.0,-100.00,NNE,29,2.0,7.0,68,0.00,,,0.00,0.000000,,2013-07-08 12:11:00,
2013-07-08 06:43:00,49.0,43.0,-100.00,ENE,73,2.0,4.0,80,0.00,,,-99.99,3.000000,,2013-07-08 12:43:00,
2013-07-08 06:53:00,49.0,43.0,-100.00,ENE,73,2.0,4.0,80,0.00,,,-99.99,3.000000,,2013-07-08 12:53:00,
2013-07-08 07:01:00,49.0,43.0,-100.00,ENE,73,2.0,4.0,80,0.00,,,-99.99,3.000000,,2013-07-08 13:01:00,
2013-07-08 07:11:00,49.0,43.0,-100.00,ENE,73,2.0,4.0,80,0.00,,,-99.99,3.000000,,2013-07-08 13:11:00,
2013-07-08 07:53:00,49.0,45.0,-100.00,NNW,329,3.0,5.0,86,0.00,,,0.00,37.000000,,2013-07-08 13:53:00,
2013-07-08 08:01:00,49.0,45.0,-100.00,NNW,329,3.0,5.0,86,0.00,,,0.00,37.000000,,2013-07-08 14:01:00,
2013-07-08 08:12:00,49.0,45.0,-100.00,NNW,329,3.0,5.0,86,0.00,,,0.00,37.000000,,2013-07-08 14:12:00,
2013-07-08 08:43:00,58.0,48.0,-100.00,NNW,334,4.0,13.0,70,-99.99,,,0.00,252.000000,,2013-07-08 14:43:00,
2013-07-08 08:53:00,58.0,48.0,-100.00,NNW,334,4.0,13.0,70,-99.99,,,0.00,252.000000,,2013-07-08 14:53:00,
2013-07-08 09:01:00,58.0,48.0,-100.00,NNW,334,4.0,13.0,70,-99.99,,,0.00,252.000000,,2013-07-08 15:01:00,
2013-07-08 09:11:00,58.0,48.0,-100.00,NNW,334,4.0,13.0,70,-99.99,,,0.00,252.000000,,2013-07-08 15:11:00,
2013-07-08 09:43:00,66.0,46.0,-100.00,NNE,16,7.0,13.0,49,0.00,,,0.00,486.000000,,2013-07-08 15:43:00,
2013-07-08 09:53:00,66.0,46.0,-100.00,NNE,16,7.0,13.0,49,0.00,,,0.00,486.000000,,2013-07-08 15:53:00,
2013-07-08 10:01:00,66.0,46.0,-100.00,NNE,16,7.0,13.0,49,0.00,,,0.00,486.000000,,2013-07-08 16:01:00,
2013-07-08 10:11:00,66.0,46.0,-100.00,NNE,16,7.0,13.0,49,0.00,,,0.00,486.000000,,2013-07-08 16:11:00,
2013-07-08 10:43:00,70.0,45.0,-100.00,NNW,343,8.0,14.0,40,0.00,,,0.00,691.000000,,2013-07-08 16:43:00,
2013-07-08 10:57:00,70.0,45.0,-100.00,NNW,343,8.0,14.0,40,0.00,,,0.00,691.000000,,2013-07-08 16:57:00,
2013-07-08 11:03:00,70.0,45.0,-100.00,NNW,343,8.0,14.0,40,0.00,,,0.00,691.000000,,2013-07-08 17:03:00,
2013-07-08 11:13:00,70.0,45.0,-100.00,NNW,343,8.0,14.0,40,0.00,,,0.00,691.000000,,2013-07-08 17:13:00,
2013-07-08 11:15:00,72.0,48.0,-100.00,NNW,346,7.0,14.0,42,0.00,,,0.00,705.000000,,2013-07-08 17:15:00,
2013-07-08 11:48:00,72.0,48.0,-100.00,NNW,346,7.0,14.0,42,0.00,,,0.00,705.000000,,2013-07-08 17:48:00,
2013-07-08 11:54:00,72.0,48.0,-100.00,NNW,346,7.0,14.0,42,0.00,,,0.00,705.000000,,2013-07-08 17:54:00,
2013-07-08 12:02:00,72.0,48.0,-100.00,NNW,346,7.0,14.0,42,0.00,,,0.00,705.000000,,2013-07-08 18:02:00,
2013-07-08 12:55:00,71.0,47.0,-100.00,North,351,11.0,19.0,43,0.00,,,0.00,760.000000,,2013-07-08 18:55:00,
2013-07-08 13:56:00,74.0,46.0,-100.00,NNW,330,7.0,16.0,37,0.00,,,0.00,1061.000000,,2013-07-08 19:56:00,
2013-07-08 14:05:00,74.0,46.0,-100.00,NNW,330,7.0,16.0,37,0.00,,,0.00,1061.000000,,2013-07-08 20:05:00,
2013-07-08 14:13:00,74.0,46.0,-100.00,NNW,330,7.0,16.0,37,0.00,,,0.00,1061.000000,,2013-07-08 20:13:00,
2013-07-08 14:54:00,74.0,46.0,-100.00,West,279,6.0,14.0,37,0.00,,,0.00,1020.000000,,2013-07-08 20:54:00,
2013-07-08 15:04:00,74.0,46.0,-100.00,West,279,6.0,14.0,37,0.00,,,0.00,1020.000000,,2013-07-08 21:04:00,
2013-07-08 17:04:00,74.0,43.0,-100.00,South,171,9.0,16.0,33,0.00,,,0.01,518.000000,,2013-07-08 23:04:00,
2013-07-08 17:13:00,74.0,43.0,-100.00,South,171,9.0,16.0,33,0.00,,,0.01,518.000000,,2013-07-08 23:13:00,
2013-07-08 18:04:00,79.0,47.0,-100.00,West,277,7.0,16.0,32,0.00,,,0.01,592.000000,,2013-07-09 00:04:00,
2013-07-08 18:13:00,79.0,47.0,-100.00,West,277,7.0,16.0,32,0.00,,,0.01,592.000000,,2013-07-09 00:13:00,
2013-07-08 18:58:00,78.0,42.0,-100.00,WNW,296,10.0,19.0,28,0.00,,,0.01,623.000000,,2013-07-09 00:58:00,
2013-07-08 19:04:00,78.0,42.0,-100.00,WNW,296,10.0,19.0,28,0.00,,,0.01,623.000000,,2013-07-09 01:04:00,
2013-07-08 19:59:00,76.0,42.0,-100.00,WNW,302,8.0,17.0,30,0.00,,,0.01,411.000000,,2013-07-09 01:59:00,
2013-07-08 20:14:00,76.0,42.0,-100.00,WNW,302,8.0,17.0,30,0.00,,,0.01,411.000000,,2013-07-09 02:14:00,
2013-07-08 21:14:00,74.0,40.0,-100.00,WNW,303,7.0,16.0,29,0.00,,,0.01,233.000000,,2013-07-09 03:14:00,
2013-07-08 21:58:00,66.0,37.0,-100.00,North,9,4.0,8.0,34,0.00,,,0.01,61.000000,,2013-07-09 03:58:00,
2013-07-08 22:02:00,66.0,37.0,-100.00,North,9,4.0,8.0,34,0.00,,,0.01,61.000000,,2013-07-09 04:02:00,
2013-07-08 22:11:00,66.0,37.0,-100.00,North,9,4.0,8.0,34,0.00,,,0.01,61.000000,,2013-07-09 04:11:00,
2013-07-08 22:43:00,63.0,37.0,-100.00,NNE,15,3.0,5.0,38,0.00,,,0.01,2.000000,,2013-07-09 04:43:00,
2013-07-08 22:53:00,63.0,37.0,-100.00,NNE,15,3.0,5.0,38,0.00,,,0.01,2.000000,,2013-07-09 04:53:00,
2013-07-08 23:02:00,63.0,37.0,-100.00,NNE,15,3.0,5.0,38,0.00,,,0.01,2.000000,,2013-07-09 05:02:00,
2013-07-08 23:11:00,63.0,37.0,-100.00,NNE,15,3.0,5.0,38,0.00,,,0.01,2.000000,,2013-07-09 05:11:00,
2013-07-08 23:42:00,58.0,36.0,-100.00,NNW,344,2.0,8.0,44,0.00,,,0.01,0.000000,,2013-07-09 05:42:00,
2013-07-08 23:52:00,58.0,36.0,-100.00,NNW,344,2.0,8.0,44,0.00,,,0.01,0.000000,,2013-07-09 05:52:00,